This is the latest recevied weather packets stored in our database for station/object K5MGY. If no packets are shown the sender has not sent any weather packets the latest 1 day(s).
| Time | Temp. | Humidity | Pressure | Rain* | Wind** | Luminosity | Snow |
|---|---|---|---|---|---|---|---|
| 1778022572 | 31.11° C | 62% | 1028 hPa | 0 mm | 0.89 m/s, 209° | 99 W/m² | - |
| 1778022269 | 31.67° C | 61% | 1028.1 hPa | 0 mm | 0.89 m/s, 207° | 108 W/m² | - |
| 1778021965 | 31.67° C | 59% | 1027.9 hPa | 0 mm | 1.34 m/s, 172° | 90 W/m² | - |
| 1778021663 | 32.22° C | 55% | 1027.5 hPa | 0 mm | 1.79 m/s, 199° | 76 W/m² | - |
| 1778021358 | 32.22° C | 53% | 1027.4 hPa | 0 mm | 0.89 m/s, 179° | 66 W/m² | - |
| 1778021055 | 32.78° C | 54% | 1027.5 hPa | 0 mm | 0.89 m/s, 176° | 76 W/m² | - |
| 1778020752 | 32.22° C | 54% | 1027.6 hPa | 0 mm | 2.24 m/s, 206° | 80 W/m² | - |
| 1778020449 | 32.78° C | 54% | 1027.6 hPa | 0 mm | 0.89 m/s, 197° | 80 W/m² | - |
| 1778020145 | 32.78° C | 54% | 1027.6 hPa | 0 mm | 0.89 m/s, 143° | 68 W/m² | - |
| 1778019842 | 32.78° C | 54% | 1027.6 hPa | 0 mm | 0.89 m/s, 177° | 81 W/m² | - |
| 1778019538 | 32.22° C | 54% | 1027.4 hPa | 0 mm | 0.89 m/s, 189° | 107 W/m² | - |
| 1778019235 | 32.78° C | 53% | 1027.4 hPa | 0 mm | 1.79 m/s, 147° | 103 W/m² | - |
| 1778018932 | 32.78° C | 52% | 1027.6 hPa | 0 mm | 0.89 m/s, 242° | 112 W/m² | - |
| 1778018629 | 32.78° C | 51% | 1027.3 hPa | 0 mm | 0.89 m/s, 231° | 105 W/m² | - |
| 1778018327 | 32.78° C | 50% | 1027.3 hPa | 0 mm | 0 m/s | 85 W/m² | - |
| 1778018025 | 33.33° C | 49% | 1027.3 hPa | 0 mm | 1.79 m/s, 159° | 106 W/m² | - |
| 1778017723 | 33.33° C | 49% | 1027.2 hPa | 0 mm | 0 m/s | 81 W/m² | - |
| 1778017420 | 33.33° C | 48% | 1027.4 hPa | 0 mm | 0.89 m/s, 149° | 83 W/m² | - |
| 1778017117 | 33.33° C | 50% | 1027.5 hPa | 0 mm | 0.45 m/s, 277° | 89 W/m² | - |
| 1778016815 | 33.33° C | 50% | 1027.3 hPa | 0 mm | 0.89 m/s, 168° | 136 W/m² | - |
| 1778016511 | 33.33° C | 49% | 1027.5 hPa | 0 mm | 0.45 m/s, 159° | 116 W/m² | - |
| 1778016208 | 32.78° C | 50% | 1027.8 hPa | 0 mm | 0 m/s | 104 W/m² | - |
| 1778015904 | 33.33° C | 50% | 1027.8 hPa | 0 mm | 0.89 m/s, 260° | 142 W/m² | - |
| 1778015602 | 32.78° C | 51% | 1027.9 hPa | 0 mm | 0.45 m/s, 292° | 120 W/m² | - |
| 1778015298 | 32.78° C | 53% | 1028 hPa | 0 mm | 0.45 m/s, 148° | 244 W/m² | - |
* Rain latest hour (hover to see other rain measurements)
** Current wind speed in m/s (hover to see current wind gust speed)